Time,TemperatureF,DewpointF,PressureIn,WindDirection,WindDirectionDegrees,WindSpeedMPH,WindSpeedGustMPH,Humidity,HourlyPrecipIn,Conditions,Clouds,dailyrainin,SoftwareType,DateUTC
2013-06-23 00:01:00,74.0,65.0,30.13,ESE,105,0.0,0.0,74,0.00,,,0.00,,2013-06-23 04:01:00,
2013-06-23 00:11:00,74.0,65.0,30.13,ESE,105,0.0,0.0,74,0.00,,,0.00,,2013-06-23 04:11:00,
2013-06-23 00:21:00,74.0,65.0,30.13,ESE,105,0.0,0.0,74,0.00,,,0.00,,2013-06-23 04:21:00,
2013-06-23 01:32:00,69.0,64.0,30.16,ESE,105,0.0,0.0,84,0.00,,,0.00,,2013-06-23 05:32:00,
2013-06-23 01:42:00,69.0,65.0,30.15,ESE,105,0.0,0.0,86,0.00,,,0.00,,2013-06-23 05:42:00,
2013-06-23 01:52:00,69.0,64.0,30.15,ESE,105,0.0,0.0,85,0.00,,,0.00,,2013-06-23 05:52:00,
2013-06-23 02:02:00,69.0,65.0,30.15,ESE,105,0.0,0.0,86,0.00,,,0.00,,2013-06-23 06:02:00,
2013-06-23 02:12:00,69.0,65.0,30.15,ESE,105,0.0,0.0,86,0.00,,,0.00,,2013-06-23 06:12:00,
2013-06-23 02:22:00,69.0,65.0,30.15,ESE,105,0.0,0.0,86,0.00,,,0.00,,2013-06-23 06:22:00,
2013-06-23 02:33:00,69.0,65.0,30.15,ESE,105,0.0,0.0,86,0.00,,,0.00,,2013-06-23 06:33:00,
2013-06-23 02:43:00,69.0,65.0,30.15,ESE,105,0.0,0.0,86,0.00,,,0.00,,2013-06-23 06:43:00,
2013-06-23 02:52:00,68.0,65.0,30.14,ESE,105,0.0,0.0,91,0.00,,,0.00,,2013-06-23 06:52:00,
2013-06-23 03:02:00,68.0,65.0,30.14,ESE,105,0.0,0.0,91,0.00,,,0.00,,2013-06-23 07:02:00,
2013-06-23 03:12:00,68.0,65.0,30.14,ESE,105,0.0,0.0,91,0.00,,,0.00,,2013-06-23 07:12:00,
2013-06-23 03:22:00,68.0,65.0,30.14,ESE,105,0.0,0.0,91,0.00,,,0.00,,2013-06-23 07:22:00,
2013-06-23 03:34:00,68.0,65.0,30.14,ESE,105,0.0,0.0,91,0.00,,,0.00,,2013-06-23 07:34:00,
2013-06-23 03:43:00,68.0,65.0,30.14,ESE,105,0.0,0.0,91,0.00,,,0.00,,2013-06-23 07:43:00,
2013-06-23 04:02:00,67.0,65.0,30.14,ESE,105,0.0,0.0,93,0.00,,,0.00,,2013-06-23 08:02:00,
2013-06-23 04:12:00,67.0,65.0,30.14,ESE,105,0.0,0.0,93,0.00,,,0.00,,2013-06-23 08:12:00,
2013-06-23 04:22:00,66.0,64.0,30.14,ESE,105,0.0,0.0,93,0.00,,,0.00,,2013-06-23 08:22:00,
2013-06-23 04:34:00,66.0,64.0,30.14,ESE,105,0.0,0.0,93,0.00,,,0.00,,2013-06-23 08:34:00,
2013-06-23 04:42:00,66.0,64.0,30.14,ESE,105,0.0,0.0,93,0.00,,,0.00,,2013-06-23 08:42:00,
2013-06-23 04:43:00,66.0,64.0,30.14,ESE,105,0.0,0.0,94,0.00,,,0.00,,2013-06-23 08:43:00,
2013-06-23 05:02:00,66.0,64.0,30.14,ESE,105,0.0,0.0,93,0.00,,,0.00,,2013-06-23 09:02:00,
2013-06-23 05:12:00,66.0,64.0,30.14,ESE,105,0.0,0.0,93,0.00,,,0.00,,2013-06-23 09:12:00,
2013-06-23 05:22:00,66.0,64.0,30.14,ESE,105,0.0,0.0,93,0.00,,,0.00,,2013-06-23 09:22:00,
2013-06-23 05:34:00,66.0,64.0,30.14,ESE,105,0.0,0.0,93,0.00,,,0.00,,2013-06-23 09:34:00,
2013-06-23 05:54:00,66.0,64.0,30.15,ESE,105,0.0,0.0,94,0.00,,,0.00,,2013-06-23 09:54:00,
2013-06-23 06:02:00,66.0,64.0,30.16,ESE,105,0.0,0.0,94,0.00,,,0.00,,2013-06-23 10:02:00,
2013-06-23 06:12:00,66.0,64.0,30.16,ESE,105,0.0,0.0,94,0.00,,,0.00,,2013-06-23 10:12:00,
2013-06-23 06:22:00,66.0,64.0,30.16,ESE,105,0.0,0.0,94,0.00,,,0.00,,2013-06-23 10:22:00,
2013-06-23 06:34:00,66.0,65.0,30.17,ESE,105,0.0,0.0,96,0.00,,,0.00,,2013-06-23 10:34:00,
2013-06-23 06:43:00,65.0,64.0,30.17,ESE,105,0.0,0.0,96,0.00,,,0.00,,2013-06-23 10:43:00,
2013-06-23 06:53:00,65.0,64.0,30.17,ESE,105,0.0,0.0,97,0.00,,,0.00,,2013-06-23 10:53:00,
2013-06-23 07:02:00,65.0,64.0,30.17,ESE,105,0.0,0.0,97,0.00,,,0.00,,2013-06-23 11:02:00,
2013-06-23 07:11:00,66.0,65.0,30.18,ESE,105,0.0,0.0,98,0.00,,,0.00,,2013-06-23 11:11:00,
2013-06-23 07:22:00,66.0,65.0,30.18,ESE,105,0.0,0.0,98,0.00,,,0.00,,2013-06-23 11:22:00,
2013-06-23 07:33:00,66.0,65.0,30.18,ESE,105,0.0,0.0,98,0.00,,,0.00,,2013-06-23 11:33:00,
2013-06-23 07:43:00,66.0,65.0,30.18,ESE,105,0.0,0.0,98,0.00,,,0.00,,2013-06-23 11:43:00,
2013-06-23 07:53:00,66.0,65.0,30.18,ESE,105,0.0,0.0,98,0.00,,,0.00,,2013-06-23 11:53:00,
2013-06-23 08:01:00,69.0,67.0,30.19,ESE,105,0.0,0.0,93,0.00,,,0.00,,2013-06-23 12:01:00,
2013-06-23 08:12:00,71.0,67.0,30.19,ESE,105,0.0,0.0,87,0.00,,,0.00,,2013-06-23 12:12:00,
2013-06-23 08:22:00,71.0,66.0,30.19,ESE,105,0.0,0.0,84,0.00,,,0.00,,2013-06-23 12:22:00,
2013-06-23 08:33:00,73.0,66.0,30.19,ESE,105,0.0,0.0,80,0.00,,,0.00,,2013-06-23 12:33:00,
2013-06-23 09:43:00,77.0,65.0,30.19,SSW,207,0.0,0.0,67,0.00,,,0.00,,2013-06-23 13:43:00,
2013-06-23 09:53:00,77.0,65.0,30.19,SSW,207,0.0,0.0,67,0.00,,,0.00,,2013-06-23 13:53:00,
2013-06-23 10:05:00,78.0,66.0,30.19,SSE,156,1.0,0.0,67,0.00,,,0.00,,2013-06-23 14:05:00,
2013-06-23 10:11:00,78.0,66.0,30.19,SSE,156,1.0,0.0,67,0.00,,,0.00,,2013-06-23 14:11:00,
2013-06-23 10:34:00,79.0,67.0,30.19,SSW,194,0.0,0.0,66,0.00,,,0.00,,2013-06-23 14:34:00,
2013-06-23 10:44:00,79.0,66.0,30.18,SSW,194,0.0,0.0,65,0.00,,,0.00,,2013-06-23 14:44:00,
2013-06-23 10:52:00,79.0,66.0,30.18,SSW,194,0.0,0.0,65,0.00,,,0.00,,2013-06-23 14:52:00,
2013-06-23 11:05:00,79.0,66.0,30.18,SSW,194,0.0,0.0,65,0.00,,,0.00,,2013-06-23 15:05:00,
2013-06-23 11:12:00,79.0,66.0,30.18,SSW,194,0.0,0.0,65,0.00,,,0.00,,2013-06-23 15:12:00,
2013-06-23 11:23:00,79.0,66.0,30.18,SSW,194,0.0,0.0,65,0.00,,,0.00,,2013-06-23 15:23:00,
2013-06-23 11:53:00,79.0,67.0,30.18,SE,128,0.0,0.0,66,0.00,,,0.00,,2013-06-23 15:53:00,
2013-06-23 12:06:00,79.0,67.0,30.18,SE,128,0.0,0.0,66,0.00,,,0.00,,2013-06-23 16:06:00,
2013-06-23 12:12:00,79.0,67.0,30.18,SE,128,0.0,0.0,66,0.00,,,0.00,,2013-06-23 16:12:00,
2013-06-23 12:36:00,82.0,68.0,30.17,ESE,117,0.0,4.0,63,0.00,,,0.00,,2013-06-23 16:36:00,
2013-06-23 12:43:00,82.0,68.0,30.17,ESE,117,0.0,4.0,63,0.00,,,0.00,,2013-06-23 16:43:00,
2013-06-23 12:53:00,82.0,68.0,30.17,ESE,117,0.0,4.0,63,0.00,,,0.00,,2013-06-23 16:53:00,
2013-06-23 13:06:00,84.0,66.0,30.16,SSW,197,0.0,0.0,54,0.00,,,0.00,,2013-06-23 17:06:00,
2013-06-23 13:12:00,84.0,66.0,30.16,SSW,197,0.0,0.0,54,0.00,,,0.00,,2013-06-23 17:12:00,
2013-06-23 13:33:00,83.0,67.0,30.16,South,191,0.0,0.0,59,0.00,,,0.00,,2013-06-23 17:33:00,
2013-06-23 13:43:00,82.0,68.0,30.15,South,191,0.0,0.0,63,0.00,,,0.00,,2013-06-23 17:43:00,
2013-06-23 13:53:00,82.0,68.0,30.15,SSW,205,0.0,0.0,62,0.00,,,0.00,,2013-06-23 17:53:00,
2013-06-23 14:01:00,82.0,68.0,30.15,SSW,205,0.0,0.0,62,0.00,,,0.00,,2013-06-23 18:01:00,
2013-06-23 14:12:00,83.0,68.0,30.14,SE,139,1.0,0.0,60,0.00,,,0.00,,2013-06-23 18:12:00,
2013-06-23 14:22:00,85.0,69.0,30.14,SSE,162,1.0,0.0,58,0.00,,,0.00,,2013-06-23 18:22:00,
2013-06-23 14:34:00,85.0,69.0,30.14,SSE,162,1.0,0.0,58,0.00,,,0.00,,2013-06-23 18:34:00,
2013-06-23 14:43:00,86.0,67.0,30.14,ESE,115,0.0,0.0,53,0.00,,,0.00,,2013-06-23 18:43:00,
2013-06-23 14:53:00,86.0,68.0,30.13,NW,304,0.0,0.0,55,0.00,,,0.00,,2013-06-23 18:53:00,
2013-06-23 15:01:00,86.0,65.0,30.13,SSE,159,0.0,0.0,49,0.00,,,0.00,,2013-06-23 19:01:00,
2013-06-23 15:11:00,86.0,65.0,30.13,SSE,159,0.0,0.0,49,0.00,,,0.00,,2013-06-23 19:11:00,
2013-06-23 15:32:00,86.0,66.0,30.12,NNE,13,1.0,0.0,52,0.00,,,0.00,,2013-06-23 19:32:00,
2013-06-23 15:43:00,86.0,67.0,30.12,NNE,13,0.0,0.0,53,0.00,,,0.00,,2013-06-23 19:43:00,
2013-06-23 15:53:00,86.0,66.0,30.12,SE,131,1.0,2.0,52,0.00,,,0.00,,2013-06-23 19:53:00,
2013-06-23 16:02:00,87.0,64.0,30.11,NE,49,0.0,0.0,47,0.00,,,0.00,,2013-06-23 20:02:00,
2013-06-23 16:12:00,87.0,66.0,30.11,NE,49,0.0,0.0,50,0.00,,,0.00,,2013-06-23 20:12:00,
2013-06-23 16:24:00,88.0,60.0,30.11,West,270,3.0,0.0,39,0.00,,,0.00,,2013-06-23 20:24:00,
2013-06-23 16:42:00,85.0,60.0,30.11,West,262,1.0,0.0,43,0.00,,,0.00,,2013-06-23 20:42:00,
2013-06-23 16:53:00,87.0,65.0,30.10,SSE,165,0.0,0.0,48,0.00,,,0.00,,2013-06-23 20:53:00,
2013-06-23 17:01:00,86.0,66.0,30.10,SSE,165,0.0,0.0,52,0.00,,,0.00,,2013-06-23 21:01:00,
2013-06-23 17:22:00,86.0,66.0,30.10,WNW,287,1.0,0.0,51,0.00,,,0.00,,2013-06-23 21:22:00,
2013-06-23 17:34:00,86.0,65.0,30.10,West,262,0.0,0.0,49,0.00,,,0.00,,2013-06-23 21:34:00,
2013-06-23 17:44:00,86.0,62.0,30.10,WNW,298,3.0,0.0,45,0.00,,,0.00,,2013-06-23 21:44:00,
2013-06-23 17:52:00,86.0,64.0,30.09,WNW,298,0.0,0.0,48,0.00,,,0.00,,2013-06-23 21:52:00,
2013-06-23 18:01:00,84.0,65.0,30.09,WSW,249,0.0,0.0,53,0.00,,,0.00,,2013-06-23 22:01:00,
2013-06-23 18:12:00,84.0,66.0,30.09,WSW,249,0.0,0.0,55,0.00,,,0.00,,2013-06-23 22:12:00,
2013-06-23 18:22:00,84.0,66.0,30.09,WSW,249,0.0,0.0,55,0.00,,,0.00,,2013-06-23 22:22:00,
2013-06-23 18:32:00,84.0,66.0,30.09,WSW,249,0.0,0.0,55,0.00,,,0.00,,2013-06-23 22:32:00,
2013-06-23 18:43:00,83.0,66.0,30.09,WNW,301,0.0,0.0,56,0.00,,,0.00,,2013-06-23 22:43:00,
2013-06-23 18:53:00,83.0,67.0,30.09,WNW,301,0.0,0.0,58,0.00,,,0.00,,2013-06-23 22:53:00,
2013-06-23 19:01:00,83.0,67.0,30.09,WNW,301,0.0,0.0,58,0.00,,,0.00,,2013-06-23 23:01:00,
2013-06-23 19:12:00,82.0,64.0,30.08,WNW,301,0.0,0.0,55,0.00,,,0.00,,2013-06-23 23:12:00,
2013-06-23 19:22:00,82.0,64.0,30.08,WNW,301,0.0,0.0,55,0.00,,,0.00,,2013-06-23 23:22:00,
2013-06-23 19:33:00,82.0,64.0,30.08,WNW,301,0.0,0.0,55,0.00,,,0.00,,2013-06-23 23:33:00,
2013-06-23 19:44:00,82.0,64.0,30.08,WNW,301,0.0,0.0,55,0.00,,,0.00,,2013-06-23 23:44:00,
2013-06-23 19:52:00,82.0,63.0,30.09,WNW,301,0.0,0.0,53,0.00,,,0.00,,2013-06-23 23:52:00,
2013-06-23 20:01:00,82.0,64.0,30.09,WNW,301,0.0,0.0,54,0.00,,,0.00,,2013-06-24 00:01:00,
2013-06-23 20:11:00,81.0,63.0,30.09,WNW,301,0.0,0.0,55,0.00,,,0.00,,2013-06-24 00:11:00,
2013-06-23 20:22:00,81.0,63.0,30.09,WNW,301,0.0,0.0,55,0.00,,,0.00,,2013-06-24 00:22:00,
2013-06-23 20:33:00,79.0,63.0,30.09,WNW,301,0.0,0.0,59,0.00,,,0.00,,2013-06-24 00:33:00,
2013-06-23 20:42:00,79.0,64.0,30.09,WNW,301,0.0,0.0,60,0.00,,,0.00,,2013-06-24 00:42:00,
2013-06-23 20:52:00,78.0,64.0,30.09,WNW,301,0.0,0.0,62,0.00,,,0.00,,2013-06-24 00:52:00,
2013-06-23 21:02:00,77.0,63.0,30.09,WNW,301,0.0,0.0,62,0.00,,,0.00,,2013-06-24 01:02:00,
2013-06-23 21:11:00,77.0,63.0,30.09,WNW,301,0.0,0.0,62,0.00,,,0.00,,2013-06-24 01:11:00,
2013-06-23 21:22:00,77.0,63.0,30.10,WNW,301,0.0,0.0,63,0.00,,,0.00,,2013-06-24 01:22:00,
2013-06-23 21:32:00,77.0,64.0,30.10,WNW,301,0.0,0.0,64,0.00,,,0.00,,2013-06-24 01:32:00,
2013-06-23 21:42:00,77.0,64.0,30.10,WNW,301,0.0,0.0,64,0.00,,,0.00,,2013-06-24 01:42:00,
2013-06-23 21:53:00,76.0,64.0,30.11,WNW,301,0.0,0.0,66,0.00,,,0.00,,2013-06-24 01:53:00,
2013-06-23 22:02:00,76.0,64.0,30.11,WNW,301,0.0,0.0,67,0.00,,,0.00,,2013-06-24 02:02:00,
2013-06-23 22:11:00,75.0,64.0,30.12,WNW,301,0.0,0.0,68,0.00,,,0.00,,2013-06-24 02:11:00,
2013-06-23 22:22:00,75.0,64.0,30.12,WNW,301,0.0,0.0,69,0.00,,,0.00,,2013-06-24 02:22:00,
2013-06-23 22:42:00,74.0,64.0,30.14,WNW,301,0.0,0.0,72,0.00,,,0.00,,2013-06-24 02:42:00,
2013-06-23 22:53:00,74.0,65.0,30.14,WNW,301,0.0,0.0,73,0.00,,,0.00,,2013-06-24 02:53:00,
2013-06-23 23:01:00,74.0,65.0,30.14,WNW,301,0.0,0.0,73,0.00,,,0.00,,2013-06-24 03:01:00,
2013-06-23 23:11:00,73.0,65.0,30.14,WNW,301,0.0,0.0,75,0.00,,,0.00,,2013-06-24 03:11:00,
2013-06-23 23:22:00,73.0,65.0,30.14,WNW,301,0.0,0.0,76,0.00,,,0.00,,2013-06-24 03:22:00,
2013-06-23 23:33:00,73.0,65.0,30.14,WNW,301,0.0,0.0,76,0.00,,,0.00,,2013-06-24 03:33:00,
2013-06-23 23:43:00,72.0,65.0,30.14,WNW,301,0.0,0.0,79,0.00,,,0.00,,2013-06-24 03:43:00,
2013-06-23 23:53:00,72.0,65.0,30.14,WNW,301,0.0,0.0,79,0.00,,,0.00,,2013-06-24 03:53:00,